East Winnfield, Louisiana
Current Conditions -  °F | °C
As of 5:35 PM on Wednesday 22 Oct 2014 (Local Time) from KIER Reporting Station
Clear Clear  
Wind Chill: 76°   Ceiling: Unl
Heat Index: 78°   Visibility: 10mi
Dew Point: 53°   Wind: 8mph
Humidity: 45%   Direction: 80°E
Pressure: 30.08"   Gusts: NA
Location:  31.9379°N, 92.5858°W
Report Text: KIER 222235Z AUTO 08007KT 10SM CLR 25/12 A3008 RMK AO2 T02450118
Loading
Personal Weather Stations






























Interactive Weather Map
Tropical Storm Tracking
New forecast layout! Learn more

10-Day Weather Forecast

Advertisements
Track Severe Weather on mobile